Houlton, ME

3:53 AM EST on February 13, 2016 (GMT -0500)
Houlton International | | Change Station
CLOSE
Current Station
Airport
Location: Houlton,
Elevation: 492 ft
Nearby Weather Stations
Active Advisory: Wind Chill Advisory

Elev 492 ft 46.12 °N, 67.79 °W | Updated 1 hour ago

Clear
Clear
-21 °F
Feels Like -21 °F
N
0
Wind Variable Wind from North

Today
High -- | Low -- °F
--% Chance of Precip.
Yesterday
High -- | Low -- °F
Precip. -- in
Pressure 29.92 in
Visibility 10.0 miles
Clouds Clear
Dew Point -27 °F
Humidity 73%
Rainfall 0.00 in
Snow Depth Not available.
6:37 AM 4:53 PM
Waxing Crescent, 28% visible
METAR KHUL 130753Z AUTO 00000KT 10SM CLR M29/M33 A2987 RMK AO2 SLP131 T12941328
Pressure 29.92 in
Visibility 10.0 miles
Clouds Clear
Dew Point -27 °F
Humidity 73%
Rainfall 0.00 in
Snow Depth Not available.
6:37 AM 4:53 PM
Waxing Crescent, 28% visible
METAR KHUL 130753Z AUTO 00000KT 10SM CLR M29/M33 A2987 RMK AO2 SLP131 T12941328

10-Day Weather Forecast

Almanac

Astronomy

Feb. 13, 2016 Rise Set
Actual Time
Civil Twilight
Nautical Twilight
Astronomical Twilight
Moon
Length of Visible Light
Length of Day
Tomorrow will be .
, % of the Moon is Illuminated

Today's Extremes

State Highs State Lows

Community

WunderPhotos

Upload Photos

1,892,536 photos uploaded!

WunderBlog® & News

Nearby

Air Quality

  Air Quality AQ Index Pollutant
Not available.

Snow Depth

Station Depth Elevation

Earthquake Activity

City Distance Mag. Time & Date
Minimum magnitude displayed is 2.5.

Coastal Water Temperatures

Place Temperature

Stations

Nearby Weather Stations

Station Location Temp. Windchill Dew Point Humidity Wind Precip. Elev Updated Type
                   

Watches & Warnings

Wind Chill Advisory
Issued: 3:37 AM EST Feb. 13, 2016 – National Weather Service

... Wind Chill Advisory remains in effect from 2 am to 10 am EST
Sunday...

* locations... northeast and southern Aroostook County... Penobscot
County... southern Piscataquis County and interior Washington
County.

* Hazard types... bitterly cold wind chills.

* Wind chill readings... as low as 29 below.

* Timing... late Saturday night into Sunday morning.

* Impacts... frostbite and hypothermia are possible if not
dressed appropriately while outdoors.

* Winds... northwest 10 to 15 mph with gusts up to 30 mph.

* Temperatures... 11 below to 2 above zero.

Precautionary/preparedness actions...

A Wind Chill Advisory means that very cold air and strong winds
will combine to generate low wind chills. This will result in
frost bite and lead to hypothermia if precautions are not taken.
If you must venture outdoors... make sure you wear a hat and
gloves.